createdAt,value
2023-07-22T00:01:55.680Z,99896.81
2023-07-22T00:04:22.293Z,99868.78
2023-07-22T00:06:49.280Z,99839.16
2023-07-22T00:09:15.918Z,99814.66
2023-07-22T00:11:43.028Z,99828.81
2023-07-22T00:14:10.172Z,99853.63
2023-07-22T00:16:36.864Z,99877.56
2023-07-22T00:19:03.513Z,99882.78
2023-07-22T00:21:30.185Z,99884.66
2023-07-22T00:23:56.761Z,99894.56
2023-07-22T00:26:23.314Z,99901.94
2023-07-22T00:28:49.752Z,99916.63
2023-07-22T00:31:16.315Z,99945.94
2023-07-22T00:33:42.912Z,99952.53
2023-07-22T00:36:11.102Z,99929.31
2023-07-22T00:38:37.675Z,99938.44
2023-07-22T00:41:04.278Z,99921.88
2023-07-22T00:43:30.836Z,99906.22
2023-07-22T00:45:57.389Z,99928.47
2023-07-22T00:48:24.332Z,99902.41
2023-07-22T00:50:51.251Z,99903.09
2023-07-22T00:53:17.933Z,99866.03
2023-07-22T00:55:46.180Z,99923.44
2023-07-22T00:58:12.708Z,99946.28
2023-07-22T01:00:39.299Z,99973.38
2023-07-22T01:03:06.119Z,99992.88
2023-07-22T01:05:33.192Z,99995.66
2023-07-22T01:07:59.945Z,99967.75
2023-07-22T01:10:26.581Z,99968.66
2023-07-22T01:12:53.201Z,99975.66
2023-07-22T01:15:19.858Z,99970.97
2023-07-22T01:17:46.886Z,99973.09
2023-07-22T01:20:14.326Z,99977.50
2023-07-22T01:22:44.065Z,99963.97
2023-07-22T01:25:10.961Z,99962.47
2023-07-22T01:27:37.513Z,99957.47
2023-07-22T01:30:05.389Z,99965.50
2023-07-22T01:32:32.015Z,99979.91
2023-07-22T01:34:58.591Z,99968.25
2023-07-22T01:39:50.490Z,99944.94
2023-07-22T01:42:18.807Z,99932.66
2023-07-22T01:44:45.600Z,99937.97
2023-07-22T01:47:12.246Z,99946.66
2023-07-22T01:49:38.829Z,99955.56
2023-07-22T01:52:05.558Z,99953.63
2023-07-22T01:54:32.201Z,99954.91
2023-07-22T01:57:01.655Z,99955.34
2023-07-22T01:59:28.574Z,99968.03
2023-07-22T02:01:55.225Z,99980.91
2023-07-22T02:04:22.232Z,99973.09
2023-07-22T02:06:49.608Z,99969.72
2023-07-22T02:09:16.151Z,99977.16
2023-07-22T02:11:43.563Z,99988.38
2023-07-22T02:14:10.264Z,99987.94
2023-07-22T02:16:37.960Z,99977.56
2023-07-22T02:19:05.419Z,99978.00
2023-07-22T02:21:32.046Z,99982.03
2023-07-22T02:23:58.478Z,99978.84
2023-07-22T02:26:25.421Z,99990.72
2023-07-22T02:28:53.448Z,99993.69
2023-07-22T02:31:20.417Z,99996.00
2023-07-22T02:33:47.004Z,100008.09
2023-07-22T02:36:13.784Z,100011.06
2023-07-22T02:38:40.770Z,100015.28
2023-07-22T02:41:07.462Z,100008.47
2023-07-22T02:43:36.854Z,100012.72
2023-07-22T02:46:06.397Z,100017.16
2023-07-22T02:48:39.585Z,100024.22
2023-07-22T02:51:11.517Z,100023.53
2023-07-22T02:53:39.984Z,100035.84
2023-07-22T02:56:07.356Z,100030.72
2023-07-22T02:58:34.621Z,100048.94
2023-07-22T03:01:02.077Z,100041.94
2023-07-22T03:03:29.940Z,100041.13
2023-07-22T03:05:56.557Z,100045.56
2023-07-22T03:08:23.124Z,100041.47
2023-07-22T03:10:49.966Z,100047.78
2023-07-22T03:13:16.955Z,100048.38
2023-07-22T03:15:43.882Z,100037.69
2023-07-22T03:18:12.129Z,100033.16
2023-07-22T03:20:39.369Z,100045.56
2023-07-22T03:23:07.019Z,100040.44
2023-07-22T03:28:25.460Z,100037.19
2023-07-22T03:30:52.114Z,100034.66
2023-07-22T03:33:18.567Z,100038.56
2023-07-22T03:35:45.315Z,100031.88
2023-07-22T03:38:11.914Z,100032.19
2023-07-22T03:40:38.412Z,100030.38
2023-07-22T03:43:05.004Z,100047.34
2023-07-22T03:45:31.588Z,100049.03
2023-07-22T03:47:59.548Z,100038.47
2023-07-22T03:50:26.724Z,100043.97
2023-07-22T03:52:53.742Z,100059.00
2023-07-22T03:55:20.548Z,100074.06
2023-07-22T03:57:47.414Z,100084.25
2023-07-22T04:00:14.145Z,100090.97
2023-07-22T04:02:42.195Z,100102.44
2023-07-22T04:05:09.487Z,100114.75
2023-07-22T04:07:36.276Z,100117.28
2023-07-22T04:10:03.607Z,100125.53
2023-07-22T04:12:30.201Z,100111.16
2023-07-22T04:14:57.434Z,100092.81
2023-07-22T04:17:24.123Z,100096.41
2023-07-22T04:19:52.665Z,100116.00
2023-07-22T04:22:21.986Z,100129.63
2023-07-22T04:24:49.144Z,100130.94
2023-07-22T04:27:15.783Z,100166.13
2023-07-22T04:29:42.232Z,100173.56
2023-07-22T04:32:09.052Z,100180.81
2023-07-22T04:34:35.636Z,100167.06
2023-07-22T04:37:02.047Z,100162.56
2023-07-22T04:39:30.119Z,100162.19
2023-07-22T04:41:56.870Z,100152.38
2023-07-22T04:44:23.470Z,100148.47
2023-07-22T04:46:50.009Z,100147.22
2023-07-22T04:49:16.528Z,100173.72
2023-07-22T04:51:43.151Z,100186.28
2023-07-22T04:54:09.812Z,100219.16
2023-07-22T04:56:36.351Z,100224.28
2023-07-22T04:59:02.851Z,100212.41
2023-07-22T05:01:29.468Z,100183.34
2023-07-22T05:03:56.336Z,100178.09
2023-07-22T05:06:23.422Z,100200.59
2023-07-22T05:08:50.373Z,100195.72
2023-07-22T05:11:17.071Z,100204.84
2023-07-22T05:13:43.656Z,100203.81
2023-07-22T05:16:10.326Z,100213.53
2023-07-22T05:18:37.144Z,100203.81
2023-07-22T05:21:03.767Z,100208.44
2023-07-22T05:23:30.352Z,100196.13
2023-07-22T05:25:56.777Z,100182.56
2023-07-22T05:28:24.945Z,100216.03
2023-07-22T05:33:17.115Z,100188.75
2023-07-22T05:35:44.547Z,100219.13
2023-07-22T05:38:13.733Z,100238.03
2023-07-22T05:40:40.328Z,100222.81
2023-07-22T05:43:06.935Z,100208.63
2023-07-22T05:45:34.967Z,100155.38
2023-07-22T05:48:01.975Z,100165.59
2023-07-22T05:50:28.625Z,100151.22
2023-07-22T05:52:56.788Z,100126.78
2023-07-22T05:55:23.376Z,100099.84
2023-07-22T05:57:50.257Z,100122.63
2023-07-22T06:00:17.782Z,100135.53
2023-07-22T06:02:44.519Z,100135.16
2023-07-22T06:05:11.148Z,100130.41
2023-07-22T06:07:37.697Z,100107.03
2023-07-22T06:10:04.566Z,100086.06
2023-07-22T06:12:31.086Z,100054.19
2023-07-22T06:14:57.660Z,100045.41
2023-07-22T06:17:24.340Z,100062.03
2023-07-22T06:19:51.760Z,100054.06
2023-07-22T06:22:18.318Z,100054.94
2023-07-22T06:24:44.889Z,100050.13
2023-07-22T06:27:11.529Z,100039.28
2023-07-22T06:29:38.120Z,100025.00
2023-07-22T06:32:05.192Z,100025.41
2023-07-22T06:34:32.076Z,100032.97
2023-07-22T06:36:58.653Z,100033.88
2023-07-22T06:39:25.206Z,100024.28
2023-07-22T06:41:51.722Z,100033.59
2023-07-22T06:44:18.255Z,100046.28
2023-07-22T06:46:44.874Z,100041.28
2023-07-22T06:49:12.893Z,100045.25
2023-07-22T06:51:39.494Z,100049.44
2023-07-22T06:54:07.177Z,100073.34
2023-07-22T06:56:33.799Z,100078.19
2023-07-22T06:59:00.860Z,100069.72
2023-07-22T07:01:28.766Z,100072.03
2023-07-22T07:03:55.678Z,100070.91
2023-07-22T07:06:22.309Z,100077.19
2023-07-22T07:08:48.988Z,100068.81
2023-07-22T07:11:15.613Z,100070.19
2023-07-22T07:13:42.643Z,100063.13
2023-07-22T07:16:26.098Z,100063.75
2023-07-22T07:18:53.723Z,100066.97
2023-07-22T07:21:22.051Z,100059.03
2023-07-22T07:23:49.619Z,100055.53
2023-07-22T07:26:17.727Z,100059.94
2023-07-22T07:28:45.903Z,100052.53
2023-07-22T07:31:13.720Z,100051.59
2023-07-22T07:33:40.499Z,100045.09
2023-07-22T07:36:07.369Z,100049.13
2023-07-22T07:38:33.998Z,100047.69
2023-07-22T07:41:04.937Z,100062.41
2023-07-22T07:43:31.588Z,100055.63
2023-07-22T07:46:30.206Z,100051.41
2023-07-22T07:49:02.263Z,100050.28
2023-07-22T07:51:33.054Z,100048.94
2023-07-22T07:54:00.440Z,100054.84
2023-07-22T07:56:27.906Z,100037.19
2023-07-22T07:58:56.355Z,100042.81
2023-07-22T08:01:23.111Z,100043.09
2023-07-22T08:03:49.924Z,100037.75
2023-07-22T08:06:22.498Z,100039.13
2023-07-22T08:08:52.268Z,100033.81
2023-07-22T08:11:18.870Z,100029.75
2023-07-22T08:13:45.556Z,100022.97
2023-07-22T08:16:13.815Z,100026.53
2023-07-22T08:18:41.891Z,100019.06
2023-07-22T08:21:09.210Z,100031.91
2023-07-22T08:23:38.958Z,100026.69
2023-07-22T08:26:06.469Z,100030.19
2023-07-22T08:28:33.680Z,100018.47
2023-07-22T08:31:00.388Z,100014.34
2023-07-22T08:33:39.752Z,100015.94
2023-07-22T08:36:09.087Z,100017.03
2023-07-22T08:38:36.362Z,100017.78
2023-07-22T08:41:03.001Z,100029.50
2023-07-22T08:43:30.667Z,100027.75
2023-07-22T08:46:01.234Z,100032.69
2023-07-22T08:48:30.441Z,100034.38
2023-07-22T08:51:03.253Z,100039.63
2023-07-22T08:53:30.710Z,100038.88
2023-07-22T08:55:57.399Z,100048.44
2023-07-22T08:58:25.248Z,100051.69
2023-07-22T09:00:53.293Z,100046.97
2023-07-22T09:03:20.368Z,100052.50
2023-07-22T09:05:47.886Z,100051.16
2023-07-22T09:08:14.610Z,100033.38
2023-07-22T09:10:42.818Z,100035.31
2023-07-22T09:13:09.749Z,100023.78
2023-07-22T09:15:37.586Z,100026.94
2023-07-22T09:18:05.599Z,100024.34
2023-07-22T09:20:32.534Z,100024.50
2023-07-22T09:23:12.695Z,100020.06
2023-07-22T09:25:42.205Z,100013.72
2023-07-22T09:28:08.981Z,100008.28
2023-07-22T09:30:37.337Z,100019.34
2023-07-22T09:33:06.999Z,100014.13
2023-07-22T09:35:50.768Z,100017.66
2023-07-22T09:38:26.829Z,100015.22
2023-07-22T09:40:54.432Z,100010.09
2023-07-22T09:43:22.408Z,100009.94
2023-07-22T09:45:49.644Z,100006.91
2023-07-22T09:48:16.757Z,100022.50
2023-07-22T09:50:43.797Z,100009.03
2023-07-22T09:53:16.411Z,100006.88
2023-07-22T09:55:43.001Z,100001.78
2023-07-22T09:58:10.308Z,100001.06
2023-07-22T10:00:37.955Z,100004.91
2023-07-22T10:03:10.393Z,100002.91
2023-07-22T10:05:39.088Z,100002.97
2023-07-22T10:08:07.672Z,99997.41
2023-07-22T10:10:39.729Z,99996.00
2023-07-22T10:13:06.563Z,100000.72
2023-07-22T10:15:34.747Z,99999.53
2023-07-22T10:18:02.599Z,99977.91
2023-07-22T10:20:30.350Z,99985.72
2023-07-22T10:22:57.476Z,99984.59
2023-07-22T10:25:24.846Z,99990.13
2023-07-22T10:27:53.499Z,99986.63
2023-07-22T10:30:20.281Z,99991.59
2023-07-22T10:32:49.714Z,99991.50
2023-07-22T10:35:31.759Z,99991.69
2023-07-22T10:38:15.441Z,99989.59
2023-07-22T10:40:51.286Z,99974.25
2023-07-22T10:43:19.190Z,99981.28
2023-07-22T10:45:54.109Z,99976.34
2023-07-22T10:48:22.836Z,99966.31
2023-07-22T10:50:51.944Z,99982.34
2023-07-22T10:53:25.124Z,99970.53
2023-07-22T10:56:09.777Z,99970.94
2023-07-22T10:58:45.450Z,99969.69
2023-07-22T11:01:33.380Z,99972.50
2023-07-22T11:04:21.332Z,99969.22
2023-07-22T11:06:47.810Z,99972.69
2023-07-22T11:09:32.207Z,99966.03
2023-07-22T11:12:09.220Z,99967.47
2023-07-22T11:17:04.171Z,99962.47
2023-07-22T11:19:31.099Z,99956.56
2023-07-22T11:21:57.814Z,99965.56
2023-07-22T11:24:25.226Z,99955.91
2023-07-22T11:26:53.973Z,99965.72
2023-07-22T11:29:21.859Z,99957.97
2023-07-22T11:31:50.826Z,99951.91
2023-07-22T11:34:23.327Z,99955.19
2023-07-22T11:36:51.472Z,99955.66
2023-07-22T11:39:22.842Z,99953.56
2023-07-22T11:41:50.160Z,99953.50
2023-07-22T11:44:19.807Z,99951.22
2023-07-22T11:46:49.371Z,99944.94
2023-07-22T11:49:32.220Z,99960.38
2023-07-22T11:52:06.078Z,99948.19
2023-07-22T11:54:34.449Z,99955.84
2023-07-22T11:57:30.624Z,99955.44
2023-07-22T11:59:57.822Z,99946.81
2023-07-22T12:02:26.467Z,99952.34
2023-07-22T12:05:05.221Z,99945.25
2023-07-22T12:07:36.716Z,99940.19
2023-07-22T12:10:08.136Z,99946.44
2023-07-22T12:12:35.960Z,99935.47
2023-07-22T12:15:24.035Z,99932.66
2023-07-22T12:18:01.531Z,99924.50
2023-07-22T12:20:30.022Z,99928.50
2023-07-22T12:22:58.470Z,99935.19
2023-07-22T12:25:25.884Z,99925.53
2023-07-22T12:27:52.633Z,99920.25
2023-07-22T12:30:20.355Z,99919.84
2023-07-22T12:32:47.850Z,99920.88
2023-07-22T12:35:15.900Z,99916.84
2023-07-22T12:37:42.824Z,99914.69
2023-07-22T12:40:10.162Z,99907.41
2023-07-22T12:42:37.345Z,99909.66
2023-07-22T12:45:07.989Z,99909.94
2023-07-22T12:47:34.648Z,99905.47
2023-07-22T12:50:01.241Z,99891.66
2023-07-22T12:52:27.834Z,99902.13
2023-07-22T12:54:54.379Z,99901.16
2023-07-22T12:57:22.513Z,99904.25
2023-07-22T12:59:49.093Z,99905.19
2023-07-22T13:02:17.006Z,99909.22
2023-07-22T13:04:43.630Z,99891.91
2023-07-22T13:07:10.117Z,99891.56
2023-07-22T13:09:42.864Z,99896.88
2023-07-22T13:12:09.874Z,99885.28
2023-07-22T13:14:39.618Z,99890.81
2023-07-22T13:17:06.644Z,99893.88
2023-07-22T13:19:34.334Z,99874.59
2023-07-22T13:22:00.893Z,99873.00
2023-07-22T13:24:27.515Z,99878.75
2023-07-22T13:26:54.136Z,99872.88
2023-07-22T13:29:20.679Z,99863.56
2023-07-22T13:31:47.268Z,99868.50
2023-07-22T13:34:13.856Z,99865.31
2023-07-22T13:36:41.233Z,99855.34
2023-07-22T13:39:07.805Z,99854.66
2023-07-22T13:41:34.440Z,99860.41
2023-07-22T13:44:00.983Z,99845.38
2023-07-22T13:46:27.565Z,99843.81
2023-07-22T13:48:54.096Z,99853.91
2023-07-22T13:51:20.932Z,99859.78
2023-07-22T13:53:47.491Z,99850.22
2023-07-22T13:56:14.209Z,99851.44
2023-07-22T13:58:40.829Z,99857.28
2023-07-22T14:01:07.457Z,99860.97
2023-07-22T14:03:34.111Z,99859.78
2023-07-22T14:06:02.052Z,99860.56
2023-07-22T14:11:09.478Z,99864.38
2023-07-22T14:13:36.063Z,99862.88
2023-07-22T14:16:16.953Z,99864.41
2023-07-22T14:18:48.259Z,99866.88
2023-07-22T14:21:14.958Z,99869.47
2023-07-22T14:23:41.816Z,99870.63
2023-07-22T14:26:08.403Z,99862.31
2023-07-22T14:28:35.024Z,99850.84
2023-07-22T14:31:01.548Z,99842.34
2023-07-22T14:33:28.085Z,99841.03
2023-07-22T14:35:54.680Z,99834.69
2023-07-22T14:38:21.263Z,99852.28
2023-07-22T14:40:47.980Z,99846.13
2023-07-22T14:43:14.727Z,99836.91
2023-07-22T14:45:41.568Z,99841.53
2023-07-22T14:48:08.258Z,99848.41
2023-07-22T14:50:34.846Z,99850.03
2023-07-22T14:53:01.446Z,99856.88
2023-07-22T14:55:28.041Z,99865.16
2023-07-22T14:57:54.644Z,99871.94
2023-07-22T15:00:21.180Z,99887.97
2023-07-22T15:02:49.002Z,99880.94
2023-07-22T15:05:15.624Z,99884.75
2023-07-22T15:07:42.251Z,99887.94
2023-07-22T15:10:08.965Z,99879.38
2023-07-22T15:12:35.583Z,99884.00
2023-07-22T15:15:02.202Z,99879.50
2023-07-22T15:17:28.753Z,99876.53
2023-07-22T15:19:56.584Z,99879.53
2023-07-22T15:22:23.168Z,99880.50
2023-07-22T15:24:49.794Z,99882.09
2023-07-22T15:27:16.829Z,99879.63
2023-07-22T15:29:43.409Z,99883.09
2023-07-22T15:32:10.008Z,99895.81
2023-07-22T15:34:37.925Z,99880.03
2023-07-22T15:37:04.650Z,99883.63
2023-07-22T15:39:31.152Z,99884.44
2023-07-22T15:41:57.789Z,99891.13
2023-07-22T15:44:24.369Z,99893.91
2023-07-22T15:46:50.930Z,99890.06
2023-07-22T15:49:17.526Z,99901.03
2023-07-22T15:51:44.050Z,99906.16
2023-07-22T15:54:10.785Z,99879.34
2023-07-22T15:56:37.306Z,99883.50
2023-07-22T15:59:04.102Z,99892.16
2023-07-22T16:01:31.056Z,99878.66
2023-07-22T16:03:58.027Z,99852.38
2023-07-22T16:06:32.727Z,99830.34
2023-07-22T16:09:00.245Z,99826.94
2023-07-22T16:11:27.177Z,99849.72
2023-07-22T16:13:54.063Z,99860.69
2023-07-22T16:16:21.969Z,99865.47
2023-07-22T16:18:48.629Z,99849.69
2023-07-22T16:21:15.225Z,99860.84
2023-07-22T16:23:41.784Z,99856.34
2023-07-22T16:26:08.455Z,99874.16
2023-07-22T16:28:35.043Z,99914.00
2023-07-22T16:31:01.608Z,99921.75
2023-07-22T16:33:28.175Z,99932.28
2023-07-22T16:35:55.140Z,99952.00
2023-07-22T16:38:21.740Z,99959.66
2023-07-22T16:40:48.312Z,99946.91
2023-07-22T16:43:14.931Z,99931.53
2023-07-22T16:45:41.502Z,99937.63
2023-07-22T16:48:08.732Z,99939.19
2023-07-22T16:50:35.261Z,99949.16
2023-07-22T16:53:01.888Z,99944.25
2023-07-22T16:55:30.306Z,99943.13
2023-07-22T16:57:56.930Z,99943.94
2023-07-22T17:00:23.550Z,99945.81
2023-07-22T17:02:50.368Z,99941.91
2023-07-22T17:05:17.095Z,99933.22
2023-07-22T17:07:43.650Z,99922.97
2023-07-22T17:10:10.388Z,99913.03
2023-07-22T17:12:38.028Z,99908.66
2023-07-22T17:15:05.705Z,99901.81
2023-07-22T17:17:32.284Z,99896.53
2023-07-22T17:19:58.946Z,99904.94
2023-07-22T17:22:25.451Z,99902.31
2023-07-22T17:24:52.103Z,99911.28
2023-07-22T17:27:18.662Z,99921.03
2023-07-22T17:29:45.220Z,99925.31
2023-07-22T17:32:11.768Z,99923.50
2023-07-22T17:37:03.665Z,99926.94
2023-07-22T17:39:30.955Z,99922.13
2023-07-22T17:41:57.509Z,99931.09
2023-07-22T17:44:24.056Z,99928.56
2023-07-22T17:46:50.612Z,99932.03
2023-07-22T17:49:17.222Z,99928.03
2023-07-22T17:51:44.116Z,99930.88
2023-07-22T17:54:10.691Z,99917.16
2023-07-22T17:56:37.329Z,99903.69
2023-07-22T17:59:04.406Z,99895.38
2023-07-22T18:01:31.239Z,99890.56
2023-07-22T18:03:58.235Z,99890.13
2023-07-22T18:06:24.878Z,99883.50
2023-07-22T18:08:53.310Z,99880.53
2023-07-22T18:11:21.063Z,99872.44
2023-07-22T18:13:47.694Z,99875.41
2023-07-22T18:16:14.249Z,99857.09
2023-07-22T18:18:41.025Z,99845.81
2023-07-22T18:21:08.709Z,99844.38
2023-07-22T18:23:35.588Z,99852.44
2023-07-22T18:26:02.182Z,99852.63
2023-07-22T18:28:30.923Z,99872.69
2023-07-22T18:30:57.959Z,99887.69
2023-07-22T18:33:24.526Z,99888.41
2023-07-22T18:35:51.786Z,99881.00
2023-07-22T18:38:19.652Z,99894.25
2023-07-22T18:40:49.441Z,99884.31
2023-07-22T18:43:16.037Z,99907.50
2023-07-22T18:45:42.699Z,99907.19
2023-07-22T18:48:09.258Z,99890.09
2023-07-22T18:50:36.023Z,99871.13
2023-07-22T18:53:04.214Z,99865.16
2023-07-22T18:55:30.893Z,99871.56
2023-07-22T18:57:57.497Z,99893.53
2023-07-22T19:00:24.087Z,99922.03
2023-07-22T19:02:51.857Z,99927.06
2023-07-22T19:05:19.668Z,99919.47
2023-07-22T19:07:46.180Z,99913.00
2023-07-22T19:10:12.759Z,99903.56
2023-07-22T19:12:39.290Z,99882.00
2023-07-22T19:15:06.614Z,99887.03
2023-07-22T19:17:33.197Z,99899.22
2023-07-22T19:19:59.883Z,99891.06
2023-07-22T19:22:26.517Z,99868.06
2023-07-22T19:24:53.138Z,99861.28
2023-07-22T19:27:19.761Z,99866.28
2023-07-22T19:29:47.064Z,99891.34
2023-07-22T19:32:13.933Z,99981.34
2023-07-22T19:34:40.584Z,100070.47
2023-07-22T19:37:08.363Z,100140.13
2023-07-22T19:39:34.916Z,100218.72
2023-07-22T19:42:01.633Z,100249.19
2023-07-22T19:44:28.208Z,100397.09
2023-07-22T19:46:55.736Z,100095.84
2023-07-22T19:49:22.639Z,100101.34
2023-07-22T19:51:50.044Z,100107.88
2023-07-22T19:54:18.138Z,100117.16
2023-07-22T19:56:46.151Z,100115.75
2023-07-22T19:59:13.882Z,100160.59
2023-07-22T20:01:40.952Z,100170.75
2023-07-22T20:04:09.981Z,100162.84
2023-07-22T20:09:02.108Z,100178.25
2023-07-22T20:11:28.730Z,100176.97
2023-07-22T20:13:55.990Z,100165.81
2023-07-22T20:16:22.735Z,100165.97
2023-07-22T20:18:49.837Z,100168.19
2023-07-22T20:21:17.860Z,100157.34
2023-07-22T20:23:44.417Z,100147.72
2023-07-22T20:26:10.904Z,100144.50
2023-07-22T20:28:37.482Z,100144.47
2023-07-22T20:31:04.137Z,100132.75
2023-07-22T20:33:30.723Z,100113.31
2023-07-22T20:35:57.444Z,100084.53
2023-07-22T20:38:24.317Z,100075.69
2023-07-22T20:40:50.843Z,100081.19
2023-07-22T20:43:17.795Z,100076.75
2023-07-22T20:45:44.408Z,100076.34
2023-07-22T20:48:10.946Z,100056.41
2023-07-22T20:50:37.500Z,100052.19
2023-07-22T20:53:04.583Z,100045.59
2023-07-22T20:55:31.201Z,100038.84
2023-07-22T20:57:57.819Z,100032.91
2023-07-22T21:00:24.941Z,100014.22
2023-07-22T21:02:51.622Z,99986.88
2023-07-22T21:29:23.866Z,99974.81
2023-07-22T21:31:50.932Z,99986.88
2023-07-22T21:34:17.485Z,99962.53
2023-07-22T21:36:43.989Z,99975.66
2023-07-22T21:39:10.571Z,99977.56
2023-07-22T21:41:37.028Z,99991.13
2023-07-22T21:44:03.538Z,99998.75
2023-07-22T21:46:30.103Z,100012.72
2023-07-22T21:48:56.576Z,100036.84
2023-07-22T21:51:23.617Z,100027.75
2023-07-22T21:53:51.244Z,100030.06
2023-07-22T21:56:17.821Z,100047.66
2023-07-22T21:58:45.946Z,100045.84
2023-07-22T22:01:12.618Z,100052.41
2023-07-22T22:03:39.762Z,100062.97
2023-07-22T22:06:06.406Z,100058.53
2023-07-22T22:08:33.018Z,100049.13
2023-07-22T22:11:04.720Z,100051.44
2023-07-22T22:13:31.744Z,100045.00
2023-07-22T22:15:58.238Z,100036.91
2023-07-22T22:18:24.876Z,100045.94
2023-07-22T22:20:51.291Z,100049.91
2023-07-22T22:23:17.859Z,100056.28
2023-07-22T22:25:44.806Z,100053.97
2023-07-22T22:28:11.818Z,100059.69
2023-07-22T22:30:38.494Z,100082.88
2023-07-22T22:33:04.942Z,100133.56
2023-07-22T22:35:31.558Z,100182.16
2023-07-22T22:37:58.167Z,100231.03
2023-07-22T22:40:24.823Z,100236.75
2023-07-22T22:42:51.288Z,100281.50
2023-07-22T22:45:17.982Z,100294.97
2023-07-22T22:47:46.115Z,100344.66
2023-07-22T22:50:12.630Z,100357.56
2023-07-22T22:52:39.220Z,100412.59
2023-07-22T22:55:07.552Z,100359.53
2023-07-22T22:57:37.175Z,100296.03
2023-07-22T23:00:04.120Z,100251.50
2023-07-22T23:02:31.012Z,100263.19
2023-07-22T23:04:58.873Z,100251.13
2023-07-22T23:07:25.442Z,100273.53
2023-07-22T23:09:52.105Z,100263.69
2023-07-22T23:12:19.053Z,100289.91
2023-07-22T23:14:45.600Z,100289.91
2023-07-22T23:17:12.145Z,100280.22
2023-07-22T23:22:04.300Z,100274.84
2023-07-22T23:24:31.143Z,100260.84
2023-07-22T23:26:58.063Z,100271.53
2023-07-22T23:29:24.571Z,100276.09
2023-07-22T23:31:51.858Z,100281.84
2023-07-22T23:34:18.756Z,100291.88
2023-07-22T23:36:45.631Z,100287.81
2023-07-22T23:39:12.143Z,100274.66
2023-07-22T23:41:38.982Z,100311.38
2023-07-22T23:44:05.502Z,100291.38
2023-07-22T23:46:32.403Z,100307.28
2023-07-22T23:49:00.618Z,100304.06
2023-07-22T23:51:27.386Z,100313.13
2023-07-22T23:53:54.092Z,100324.38
2023-07-22T23:56:20.802Z,100318.69
2023-07-22T23:58:47.471Z,100319.22
